Hovedside
METAR-TAF:

METAR-TAF

Lufthavner :

Hua Hin, Thailand

breddegrad: 12-35N, lengdegrad: 099-57E, høyde over havet: 5 m

Gjeldene værobservasjon

Denne rapporten ble laget for 42 minutter siden, klokken 03:00 UTC
Vind 4 kt fra Sør-sørvest, skiftende mellom Sørøst og Vest-nordvest
Temperatur 32°C
Luftfuktighet 56%
Trykk 1005 hPa
Sikt 10 km eller mer
Få skyer i en høyde av 3000 ft

METAR: VTPH 220300Z 21004KT 130V300 9999 FEW030 32/22 Q1005 NOSIG

Tid: 10:42 (03:42 UTC)

Varsel

Denne rapporten ble laget for 4 timer og 42 minutter siden, klokken 23:00 UTC
Varsel gyldig fra 22. klokken 00 UTC til 22. klokken 24 UTC
Vind kt fra Nord
Sikt 10 km eller mer
Få skyer i en høyde av 3000 ft
Blir
fra 22. klokken 02 UTC til 22. klokken 04 UTC
Vind 10 kt fra Sørøst
Blir
fra 22. klokken 13 UTC til 22. klokken 15 UTC
Vind kt fra Nord

TAF: VTPH 212300Z 2200/2224 00000KT 9999 FEW030 BECMG 2202/2204 14010KT BECMG 2213/2215 00000KT

Værobservasjoner og værvarsel for over 4000 flyplasser (METAR- og TAF-rapporter).

Tilgjengelige stasjoner er representert av de røde og gule prikkene på kartet.

Hold musepekeren over prikken for å se navnet på stasjonen.

Klikk så for å se værobservasjoner og -varsler.

For å forandre kartet kan du klikke på den grønne knappen med svart kryss for å zoome inn, på den grønne knappen med strek for å zoome ut, eller på de grønne pilene for å se tilstøtende kart.


METAR-TAF: